sensor_id;sensor_type;location;lat;lon;timestamp;temperature;humidity
38592;DHT22;24356;48.460;11.450;2022-09-12T00:02:24;11.70;86.50
38592;DHT22;24356;48.460;11.450;2022-09-12T00:04:50;11.70;86.50
38592;DHT22;24356;48.460;11.450;2022-09-12T00:07:16;11.70;86.50
38592;DHT22;24356;48.460;11.450;2022-09-12T00:09:41;11.70;86.50
38592;DHT22;24356;48.460;11.450;2022-09-12T00:12:08;11.60;86.50
38592;DHT22;24356;48.460;11.450;2022-09-12T00:14:34;11.60;86.50
38592;DHT22;24356;48.460;11.450;2022-09-12T00:17:01;11.60;86.50
38592;DHT22;24356;48.460;11.450;2022-09-12T00:19:28;11.60;86.50
38592;DHT22;24356;48.460;11.450;2022-09-12T00:21:54;11.60;86.50
38592;DHT22;24356;48.460;11.450;2022-09-12T00:24:21;11.60;86.50
38592;DHT22;24356;48.460;11.450;2022-09-12T00:26:46;11.50;86.50
38592;DHT22;24356;48.460;11.450;2022-09-12T00:29:20;11.50;86.50
38592;DHT22;24356;48.460;11.450;2022-09-12T00:31:46;11.50;86.50
38592;DHT22;24356;48.460;11.450;2022-09-12T00:34:12;11.50;86.50
38592;DHT22;24356;48.460;11.450;2022-09-12T00:36:38;11.50;86.50
38592;DHT22;24356;48.460;11.450;2022-09-12T00:39:05;11.50;86.50
38592;DHT22;24356;48.460;11.450;2022-09-12T00:41:38;11.40;86.60
38592;DHT22;24356;48.460;11.450;2022-09-12T00:47:04;11.40;86.60
38592;DHT22;24356;48.460;11.450;2022-09-12T00:55:23;11.30;86.60
38592;DHT22;24356;48.460;11.450;2022-09-12T00:57:52;11.30;86.60
38592;DHT22;24356;48.460;11.450;2022-09-12T01:00:21;11.30;86.60
38592;DHT22;24356;48.460;11.450;2022-09-12T01:02:50;11.30;86.60
38592;DHT22;24356;48.460;11.450;2022-09-12T01:05:17;11.30;86.60
38592;DHT22;24356;48.460;11.450;2022-09-12T01:07:44;11.30;86.60
38592;DHT22;24356;48.460;11.450;2022-09-12T01:10:13;11.20;86.60
38592;DHT22;24356;48.460;11.450;2022-09-12T01:12:41;11.20;86.60
38592;DHT22;24356;48.460;11.450;2022-09-12T01:15:08;11.20;86.60
38592;DHT22;24356;48.460;11.450;2022-09-12T01:20:49;11.20;86.60
38592;DHT22;24356;48.460;11.450;2022-09-12T01:23:47;11.20;86.60
38592;DHT22;24356;48.460;11.450;2022-09-12T01:42:32;11.00;86.70
38592;DHT22;24356;48.460;11.450;2022-09-12T01:45:20;11.00;86.70
38592;DHT22;24356;48.460;11.450;2022-09-12T01:48:04;11.00;86.70
38592;DHT22;24356;48.460;11.450;2022-09-12T01:50:34;11.00;86.60
38592;DHT22;24356;48.460;11.450;2022-09-12T01:53:26;11.00;86.70
38592;DHT22;24356;48.460;11.450;2022-09-12T01:56:05;11.00;86.70
38592;DHT22;24356;48.460;11.450;2022-09-12T01:58:41;11.00;86.80
38592;DHT22;24356;48.460;11.450;2022-09-12T02:01:17;11.00;86.70
38592;DHT22;24356;48.460;11.450;2022-09-12T02:09:09;10.90;86.70
38592;DHT22;24356;48.460;11.450;2022-09-12T02:11:37;10.90;86.80
38592;DHT22;24356;48.460;11.450;2022-09-12T02:14:10;10.90;86.80
38592;DHT22;24356;48.460;11.450;2022-09-12T02:16:47;10.90;86.80
38592;DHT22;24356;48.460;11.450;2022-09-12T02:19:18;10.80;86.70
38592;DHT22;24356;48.460;11.450;2022-09-12T02:21:52;10.80;86.70
38592;DHT22;24356;48.460;11.450;2022-09-12T02:24:21;10.80;86.80
38592;DHT22;24356;48.460;11.450;2022-09-12T02:26:51;10.80;86.70
38592;DHT22;24356;48.460;11.450;2022-09-12T02:29:19;10.80;86.80
38592;DHT22;24356;48.460;11.450;2022-09-12T02:31:56;10.80;86.70
38592;DHT22;24356;48.460;11.450;2022-09-12T02:39:41;10.70;86.70
38592;DHT22;24356;48.460;11.450;2022-09-12T02:42:07;10.70;86.70
38592;DHT22;24356;48.460;11.450;2022-09-12T02:44:34;10.70;86.70
38592;DHT22;24356;48.460;11.450;2022-09-12T02:47:11;10.70;86.80
38592;DHT22;24356;48.460;11.450;2022-09-12T02:49:39;10.70;86.80
38592;DHT22;24356;48.460;11.450;2022-09-12T02:52:05;10.60;86.80
38592;DHT22;24356;48.460;11.450;2022-09-12T02:54:31;10.60;86.80
38592;DHT22;24356;48.460;11.450;2022-09-12T02:56:57;10.60;86.80
38592;DHT22;24356;48.460;11.450;2022-09-12T02:59:23;10.60;86.80
38592;DHT22;24356;48.460;11.450;2022-09-12T03:02:01;10.60;86.80
38592;DHT22;24356;48.460;11.450;2022-09-12T03:04:48;10.60;86.70
38592;DHT22;24356;48.460;11.450;2022-09-12T03:07:28;10.60;86.70
38592;DHT22;24356;48.460;11.450;2022-09-12T03:21:24;10.50;86.70
38592;DHT22;24356;48.460;11.450;2022-09-12T03:29:39;10.40;86.60
38592;DHT22;24356;48.460;11.450;2022-09-12T03:32:05;10.40;86.60
38592;DHT22;24356;48.460;11.450;2022-09-12T03:34:32;10.40;86.70
38592;DHT22;24356;48.460;11.450;2022-09-12T03:36:57;10.40;86.70
38592;DHT22;24356;48.460;11.450;2022-09-12T03:39:24;10.40;86.70
38592;DHT22;24356;48.460;11.450;2022-09-12T03:41:51;10.40;86.70
38592;DHT22;24356;48.460;11.450;2022-09-12T03:44:17;10.30;86.70
38592;DHT22;24356;48.460;11.450;2022-09-12T03:46:44;10.30;86.70
38592;DHT22;24356;48.460;11.450;2022-09-12T03:49:11;10.30;86.70
38592;DHT22;24356;48.460;11.450;2022-09-12T03:51:38;10.30;86.70
38592;DHT22;24356;48.460;11.450;2022-09-12T03:54:04;10.30;86.60
38592;DHT22;24356;48.460;11.450;2022-09-12T03:56:30;10.30;86.60
38592;DHT22;24356;48.460;11.450;2022-09-12T03:58:55;10.20;86.60
38592;DHT22;24356;48.460;11.450;2022-09-12T04:01:22;10.20;86.70
38592;DHT22;24356;48.460;11.450;2022-09-12T04:03:50;10.20;86.70
38592;DHT22;24356;48.460;11.450;2022-09-12T04:06:18;10.20;86.80
38592;DHT22;24356;48.460;11.450;2022-09-12T04:08:48;10.20;86.70
38592;DHT22;24356;48.460;11.450;2022-09-12T04:11:17;10.10;86.70
38592;DHT22;24356;48.460;11.450;2022-09-12T04:13:44;10.10;86.70
38592;DHT22;24356;48.460;11.450;2022-09-12T04:16:11;10.10;86.70
38592;DHT22;24356;48.460;11.450;2022-09-12T04:18:37;10.10;86.60
38592;DHT22;24356;48.460;11.450;2022-09-12T04:21:08;10.10;86.70
38592;DHT22;24356;48.460;11.450;2022-09-12T04:23:35;10.10;86.60
38592;DHT22;24356;48.460;11.450;2022-09-12T04:26:01;10.10;86.70
38592;DHT22;24356;48.460;11.450;2022-09-12T04:28:28;10.10;86.60
38592;DHT22;24356;48.460;11.450;2022-09-12T04:30:54;10.00;86.70
38592;DHT22;24356;48.460;11.450;2022-09-12T04:33:21;10.00;86.60
38592;DHT22;24356;48.460;11.450;2022-09-12T04:35:47;10.00;86.70
38592;DHT22;24356;48.460;11.450;2022-09-12T04:38:12;10.00;86.70
38592;DHT22;24356;48.460;11.450;2022-09-12T04:40:39;10.00;86.70
38592;DHT22;24356;48.460;11.450;2022-09-12T04:43:05;10.00;86.70
38592;DHT22;24356;48.460;11.450;2022-09-12T04:45:32;9.90;86.70
38592;DHT22;24356;48.460;11.450;2022-09-12T04:47:58;9.90;86.70
38592;DHT22;24356;48.460;11.450;2022-09-12T04:50:24;9.90;86.70
38592;DHT22;24356;48.460;11.450;2022-09-12T04:52:51;9.90;86.60
38592;DHT22;24356;48.460;11.450;2022-09-12T04:55:17;9.90;86.60
38592;DHT22;24356;48.460;11.450;2022-09-12T04:57:42;9.90;86.60
38592;DHT22;24356;48.460;11.450;2022-09-12T05:00:08;9.90;86.60
38592;DHT22;24356;48.460;11.450;2022-09-12T05:02:39;9.90;86.70
38592;DHT22;24356;48.460;11.450;2022-09-12T05:05:05;9.80;86.60
38592;DHT22;24356;48.460;11.450;2022-09-12T05:07:31;9.80;86.60
38592;DHT22;24356;48.460;11.450;2022-09-12T05:09:56;9.80;86.70
38592;DHT22;24356;48.460;11.450;2022-09-12T05:12:23;9.80;86.70
38592;DHT22;24356;48.460;11.450;2022-09-12T05:14:48;9.80;86.70
38592;DHT22;24356;48.460;11.450;2022-09-12T05:17:14;9.80;86.70
38592;DHT22;24356;48.460;11.450;2022-09-12T05:19:40;9.80;86.70
38592;DHT22;24356;48.460;11.450;2022-09-12T05:22:05;9.80;86.60
38592;DHT22;24356;48.460;11.450;2022-09-12T05:24:31;9.80;86.70
38592;DHT22;24356;48.460;11.450;2022-09-12T05:26:57;9.80;86.70
38592;DHT22;24356;48.460;11.450;2022-09-12T05:29:23;9.80;86.70
38592;DHT22;24356;48.460;11.450;2022-09-12T05:31:49;9.80;86.80
38592;DHT22;24356;48.460;11.450;2022-09-12T05:34:16;9.80;86.70
38592;DHT22;24356;48.460;11.450;2022-09-12T05:36:42;9.80;86.80
38592;DHT22;24356;48.460;11.450;2022-09-12T05:39:08;9.80;86.70
38592;DHT22;24356;48.460;11.450;2022-09-12T05:41:35;9.90;86.70
38592;DHT22;24356;48.460;11.450;2022-09-12T05:44:03;9.90;86.80
38592;DHT22;24356;48.460;11.450;2022-09-12T05:46:30;9.90;86.80
38592;DHT22;24356;48.460;11.450;2022-09-12T05:49:00;9.90;86.80
38592;DHT22;24356;48.460;11.450;2022-09-12T05:51:32;10.00;86.80
38592;DHT22;24356;48.460;11.450;2022-09-12T05:54:00;10.00;86.90
38592;DHT22;24356;48.460;11.450;2022-09-12T05:56:28;10.00;86.90
38592;DHT22;24356;48.460;11.450;2022-09-12T05:58:56;10.00;87.00
38592;DHT22;24356;48.460;11.450;2022-09-12T06:01:22;10.10;87.00
38592;DHT22;24356;48.460;11.450;2022-09-12T06:03:50;10.10;86.90
38592;DHT22;24356;48.460;11.450;2022-09-12T06:06:18;10.20;87.00
38592;DHT22;24356;48.460;11.450;2022-09-12T06:08:46;10.20;87.00
38592;DHT22;24356;48.460;11.450;2022-09-12T06:11:14;10.20;86.90
38592;DHT22;24356;48.460;11.450;2022-09-12T06:13:41;10.30;86.90
38592;DHT22;24356;48.460;11.450;2022-09-12T06:16:09;10.30;86.90
38592;DHT22;24356;48.460;11.450;2022-09-12T06:18:35;10.40;87.00
38592;DHT22;24356;48.460;11.450;2022-09-12T06:21:10;10.40;87.00
38592;DHT22;24356;48.460;11.450;2022-09-12T06:23:36;10.40;87.00
38592;DHT22;24356;48.460;11.450;2022-09-12T06:26:03;10.50;87.30
38592;DHT22;24356;48.460;11.450;2022-09-12T06:28:30;10.50;87.30
38592;DHT22;24356;48.460;11.450;2022-09-12T06:31:07;10.60;87.10
38592;DHT22;24356;48.460;11.450;2022-09-12T06:33:34;10.60;87.10
38592;DHT22;24356;48.460;11.450;2022-09-12T06:38:34;10.70;86.90
38592;DHT22;24356;48.460;11.450;2022-09-12T06:41:06;10.70;87.20
38592;DHT22;24356;48.460;11.450;2022-09-12T06:43:32;10.80;87.30
38592;DHT22;24356;48.460;11.450;2022-09-12T06:45:59;10.80;88.00
38592;DHT22;24356;48.460;11.450;2022-09-12T06:48:24;10.80;87.90
38592;DHT22;24356;48.460;11.450;2022-09-12T06:51:14;10.90;87.50
38592;DHT22;24356;48.460;11.450;2022-09-12T06:53:44;10.90;88.40
38592;DHT22;24356;48.460;11.450;2022-09-12T06:56:16;11.00;88.50
38592;DHT22;24356;48.460;11.450;2022-09-12T06:58:44;11.00;88.30
38592;DHT22;24356;48.460;11.450;2022-09-12T07:03:40;11.10;88.30
38592;DHT22;24356;48.460;11.450;2022-09-12T07:06:08;11.20;88.70
38592;DHT22;24356;48.460;11.450;2022-09-12T07:08:37;11.30;88.90
38592;DHT22;24356;48.460;11.450;2022-09-12T07:11:18;11.30;88.70
38592;DHT22;24356;48.460;11.450;2022-09-12T07:13:47;11.40;88.60
38592;DHT22;24356;48.460;11.450;2022-09-12T07:16:13;11.50;88.70
38592;DHT22;24356;48.460;11.450;2022-09-12T07:18:40;11.50;88.90
38592;DHT22;24356;48.460;11.450;2022-09-12T07:21:09;11.60;88.50
38592;DHT22;24356;48.460;11.450;2022-09-12T07:23:38;11.60;88.90
38592;DHT22;24356;48.460;11.450;2022-09-12T07:26:05;11.70;89.40
38592;DHT22;24356;48.460;11.450;2022-09-12T07:28:32;11.80;89.20
38592;DHT22;24356;48.460;11.450;2022-09-12T07:31:04;11.90;88.80
38592;DHT22;24356;48.460;11.450;2022-09-12T07:33:30;11.90;89.10
38592;DHT22;24356;48.460;11.450;2022-09-12T07:36:00;12.00;88.90
38592;DHT22;24356;48.460;11.450;2022-09-12T07:38:26;12.10;88.50
38592;DHT22;24356;48.460;11.450;2022-09-12T07:40:52;12.20;87.90
38592;DHT22;24356;48.460;11.450;2022-09-12T07:43:18;12.30;88.00
38592;DHT22;24356;48.460;11.450;2022-09-12T07:45:43;12.30;87.50
38592;DHT22;24356;48.460;11.450;2022-09-12T07:48:11;12.40;87.60
38592;DHT22;24356;48.460;11.450;2022-09-12T07:50:36;12.60;87.70
38592;DHT22;24356;48.460;11.450;2022-09-12T07:53:03;12.70;88.30
38592;DHT22;24356;48.460;11.450;2022-09-12T07:55:30;12.80;89.60
38592;DHT22;24356;48.460;11.450;2022-09-12T07:57:55;12.90;88.70
38592;DHT22;24356;48.460;11.450;2022-09-12T08:00:21;13.00;89.20
38592;DHT22;24356;48.460;11.450;2022-09-12T08:02:50;13.20;89.00
38592;DHT22;24356;48.460;11.450;2022-09-12T08:05:17;13.30;90.20
38592;DHT22;24356;48.460;11.450;2022-09-12T08:07:42;13.40;89.90
38592;DHT22;24356;48.460;11.450;2022-09-12T08:10:08;13.60;90.30
38592;DHT22;24356;48.460;11.450;2022-09-12T08:12:34;13.80;90.20
38592;DHT22;24356;48.460;11.450;2022-09-12T08:15:00;14.00;90.80
38592;DHT22;24356;48.460;11.450;2022-09-12T08:17:26;14.10;90.60
38592;DHT22;24356;48.460;11.450;2022-09-12T08:19:53;14.30;89.50
38592;DHT22;24356;48.460;11.450;2022-09-12T08:22:18;14.50;89.70
38592;DHT22;24356;48.460;11.450;2022-09-12T08:24:46;14.70;89.70
38592;DHT22;24356;48.460;11.450;2022-09-12T08:27:12;14.90;89.90
38592;DHT22;24356;48.460;11.450;2022-09-12T08:29:39;15.10;89.50
38592;DHT22;24356;48.460;11.450;2022-09-12T08:32:06;15.30;89.50
38592;DHT22;24356;48.460;11.450;2022-09-12T08:34:33;15.50;89.00
38592;DHT22;24356;48.460;11.450;2022-09-12T08:36:58;15.70;88.50
38592;DHT22;24356;48.460;11.450;2022-09-12T08:39:24;15.90;87.10
38592;DHT22;24356;48.460;11.450;2022-09-12T08:42:00;16.10;86.90
38592;DHT22;24356;48.460;11.450;2022-09-12T08:47:21;16.50;85.10
38592;DHT22;24356;48.460;11.450;2022-09-12T08:55:23;17.10;82.30
38592;DHT22;24356;48.460;11.450;2022-09-12T08:57:50;17.30;82.20
38592;DHT22;24356;48.460;11.450;2022-09-12T09:00:17;17.50;81.60
38592;DHT22;24356;48.460;11.450;2022-09-12T09:03:06;17.70;81.40
38592;DHT22;24356;48.460;11.450;2022-09-12T09:05:50;17.90;81.00
38592;DHT22;24356;48.460;11.450;2022-09-12T09:11:52;18.30;79.60
38592;DHT22;24356;48.460;11.450;2022-09-12T09:20:06;18.90;77.30
38592;DHT22;24356;48.460;11.450;2022-09-12T09:25:13;19.30;76.70
38592;DHT22;24356;48.460;11.450;2022-09-12T09:27:52;19.40;75.50
38592;DHT22;24356;48.460;11.450;2022-09-12T09:30:21;19.70;74.90
38592;DHT22;24356;48.460;11.450;2022-09-12T09:32:51;20.10;74.10
38592;DHT22;24356;48.460;11.450;2022-09-12T09:35:44;20.30;73.60
38592;DHT22;24356;48.460;11.450;2022-09-12T09:43:51;20.90;71.50
38592;DHT22;24356;48.460;11.450;2022-09-12T09:46:17;21.00;71.60
38592;DHT22;24356;48.460;11.450;2022-09-12T09:48:49;21.10;70.90
38592;DHT22;24356;48.460;11.450;2022-09-12T09:51:22;21.20;70.70
38592;DHT22;24356;48.460;11.450;2022-09-12T09:56:39;21.40;69.90
38592;DHT22;24356;48.460;11.450;2022-09-12T09:59:15;21.60;69.50
38592;DHT22;24356;48.460;11.450;2022-09-12T10:02:02;21.80;68.90
38592;DHT22;24356;48.460;11.450;2022-09-12T10:04:35;22.00;68.70
38592;DHT22;24356;48.460;11.450;2022-09-12T10:07:04;22.20;68.40
38592;DHT22;24356;48.460;11.450;2022-09-12T10:09:35;22.30;68.00
38592;DHT22;24356;48.460;11.450;2022-09-12T10:12:19;22.50;67.60
38592;DHT22;24356;48.460;11.450;2022-09-12T10:14:56;22.60;67.30
38592;DHT22;24356;48.460;11.450;2022-09-12T10:17:42;22.70;67.00
38592;DHT22;24356;48.460;11.450;2022-09-12T10:22:57;22.90;66.60
38592;DHT22;24356;48.460;11.450;2022-09-12T10:25:25;22.90;66.00
38592;DHT22;24356;48.460;11.450;2022-09-12T10:27:55;23.00;66.00
38592;DHT22;24356;48.460;11.450;2022-09-12T10:30:22;23.10;66.10
38592;DHT22;24356;48.460;11.450;2022-09-12T10:32:56;23.20;66.10
38592;DHT22;24356;48.460;11.450;2022-09-12T10:35:24;23.30;65.30
38592;DHT22;24356;48.460;11.450;2022-09-12T10:38:02;23.30;65.10
38592;DHT22;24356;48.460;11.450;2022-09-12T10:40:30;23.30;65.90
38592;DHT22;24356;48.460;11.450;2022-09-12T10:43:00;23.30;65.10
38592;DHT22;24356;48.460;11.450;2022-09-12T10:45:28;23.40;64.80
38592;DHT22;24356;48.460;11.450;2022-09-12T10:47:58;23.40;64.80
38592;DHT22;24356;48.460;11.450;2022-09-12T10:50:30;23.50;64.00
38592;DHT22;24356;48.460;11.450;2022-09-12T10:53:19;23.50;64.40
38592;DHT22;24356;48.460;11.450;2022-09-12T10:56:01;23.50;64.70
38592;DHT22;24356;48.460;11.450;2022-09-12T11:15:55;23.40;64.30
38592;DHT22;24356;48.460;11.450;2022-09-12T11:18:42;23.30;64.40
38592;DHT22;24356;48.460;11.450;2022-09-12T11:24:19;23.30;64.90
38592;DHT22;24356;48.460;11.450;2022-09-12T11:27:11;23.30;64.80
38592;DHT22;24356;48.460;11.450;2022-09-12T11:32:36;23.40;64.70
38592;DHT22;24356;48.460;11.450;2022-09-12T11:35:11;23.50;65.20
38592;DHT22;24356;48.460;11.450;2022-09-12T11:40:39;23.60;64.20
38592;DHT22;24356;48.460;11.450;2022-09-12T11:43:28;23.70;64.50
38592;DHT22;24356;48.460;11.450;2022-09-12T11:46:01;23.70;64.70
38592;DHT22;24356;48.460;11.450;2022-09-12T11:52:10;23.80;64.50
38592;DHT22;24356;48.460;11.450;2022-09-12T11:55:03;23.80;64.60
38592;DHT22;24356;48.460;11.450;2022-09-12T11:57:55;23.80;64.40
38592;DHT22;24356;48.460;11.450;2022-09-12T12:00:37;23.70;64.40
38592;DHT22;24356;48.460;11.450;2022-09-12T12:08:14;23.50;65.20
38592;DHT22;24356;48.460;11.450;2022-09-12T12:10:49;23.50;65.00
38592;DHT22;24356;48.460;11.450;2022-09-12T12:13:18;23.50;65.20
38592;DHT22;24356;48.460;11.450;2022-09-12T12:15:54;23.50;65.10
38592;DHT22;24356;48.460;11.450;2022-09-12T12:18:23;23.50;65.40
38592;DHT22;24356;48.460;11.450;2022-09-12T12:20:49;23.60;65.10
38592;DHT22;24356;48.460;11.450;2022-09-12T12:25:55;23.60;65.10
38592;DHT22;24356;48.460;11.450;2022-09-12T12:28:54;23.60;65.00
38592;DHT22;24356;48.460;11.450;2022-09-12T12:31:21;23.60;64.80
38592;DHT22;24356;48.460;11.450;2022-09-12T12:38:54;23.60;64.90
38592;DHT22;24356;48.460;11.450;2022-09-12T12:43:55;23.70;65.00
38592;DHT22;24356;48.460;11.450;2022-09-12T12:46:26;23.70;64.90
38592;DHT22;24356;48.460;11.450;2022-09-12T12:55:13;23.80;64.60
38592;DHT22;24356;48.460;11.450;2022-09-12T12:57:44;23.80;64.30
38592;DHT22;24356;48.460;11.450;2022-09-12T13:05:46;23.80;64.50
38592;DHT22;24356;48.460;11.450;2022-09-12T13:10:50;24.00;65.10
38592;DHT22;24356;48.460;11.450;2022-09-12T13:13:24;24.00;65.10
38592;DHT22;24356;48.460;11.450;2022-09-12T13:15:51;24.00;64.90
38592;DHT22;24356;48.460;11.450;2022-09-12T13:21:06;24.10;64.40
38592;DHT22;24356;48.460;11.450;2022-09-12T13:23:33;24.10;64.40
38592;DHT22;24356;48.460;11.450;2022-09-12T13:26:01;24.20;64.50
38592;DHT22;24356;48.460;11.450;2022-09-12T13:28:28;24.20;64.20
38592;DHT22;24356;48.460;11.450;2022-09-12T13:31:23;24.30;64.30
38592;DHT22;24356;48.460;11.450;2022-09-12T13:33:59;24.40;64.30
38592;DHT22;24356;48.460;11.450;2022-09-12T13:45:22;24.80;63.90
38592;DHT22;24356;48.460;11.450;2022-09-12T13:48:11;24.80;64.20
38592;DHT22;24356;48.460;11.450;2022-09-12T13:50:56;24.90;63.30
38592;DHT22;24356;48.460;11.450;2022-09-12T13:53:25;24.90;63.40
38592;DHT22;24356;48.460;11.450;2022-09-12T13:55:58;24.90;63.30
38592;DHT22;24356;48.460;11.450;2022-09-12T13:58:30;24.80;63.40
38592;DHT22;24356;48.460;11.450;2022-09-12T14:03:48;24.60;63.30
38592;DHT22;24356;48.460;11.450;2022-09-12T14:06:51;24.50;63.60
38592;DHT22;24356;48.460;11.450;2022-09-12T14:09:31;24.40;64.30
38592;DHT22;24356;48.460;11.450;2022-09-12T14:11:59;24.30;64.70
38592;DHT22;24356;48.460;11.450;2022-09-12T14:14:38;24.40;64.90
38592;DHT22;24356;48.460;11.450;2022-09-12T14:17:24;24.40;65.00
38592;DHT22;24356;48.460;11.450;2022-09-12T14:19:54;24.50;64.40
38592;DHT22;24356;48.460;11.450;2022-09-12T14:22:25;24.60;64.70
38592;DHT22;24356;48.460;11.450;2022-09-12T14:24:51;24.70;64.60
38592;DHT22;24356;48.460;11.450;2022-09-12T14:27:21;24.80;65.30
38592;DHT22;24356;48.460;11.450;2022-09-12T14:29:49;24.90;64.80
38592;DHT22;24356;48.460;11.450;2022-09-12T14:32:23;25.00;64.30
38592;DHT22;24356;48.460;11.450;2022-09-12T14:37:37;25.10;64.20
38592;DHT22;24356;48.460;11.450;2022-09-12T14:40:15;25.10;63.90
38592;DHT22;24356;48.460;11.450;2022-09-12T14:42:41;25.10;63.70
38592;DHT22;24356;48.460;11.450;2022-09-12T14:45:28;25.10;63.70
38592;DHT22;24356;48.460;11.450;2022-09-12T14:47:55;25.10;63.50
38592;DHT22;24356;48.460;11.450;2022-09-12T14:50:26;25.10;63.70
38592;DHT22;24356;48.460;11.450;2022-09-12T14:53:22;25.10;63.70
38592;DHT22;24356;48.460;11.450;2022-09-12T14:56:11;25.10;63.90
38592;DHT22;24356;48.460;11.450;2022-09-12T14:58:38;25.10;63.80
38592;DHT22;24356;48.460;11.450;2022-09-12T15:05:57;24.80;64.10
38592;DHT22;24356;48.460;11.450;2022-09-12T15:08:23;24.70;64.20
38592;DHT22;24356;48.460;11.450;2022-09-12T15:10:49;24.60;64.20
38592;DHT22;24356;48.460;11.450;2022-09-12T15:13:21;24.60;64.50
38592;DHT22;24356;48.460;11.450;2022-09-12T15:16:10;24.50;64.20
38592;DHT22;24356;48.460;11.450;2022-09-12T15:18:36;24.40;64.40
38592;DHT22;24356;48.460;11.450;2022-09-12T15:21:04;24.40;64.20
38592;DHT22;24356;48.460;11.450;2022-09-12T15:23:33;24.30;64.60
38592;DHT22;24356;48.460;11.450;2022-09-12T15:26:00;24.30;64.50
38592;DHT22;24356;48.460;11.450;2022-09-12T15:28:29;24.30;64.60
38592;DHT22;24356;48.460;11.450;2022-09-12T15:30:56;24.20;64.90
38592;DHT22;24356;48.460;11.450;2022-09-12T15:33:23;24.20;64.90
38592;DHT22;24356;48.460;11.450;2022-09-12T15:35:49;24.20;65.10
38592;DHT22;24356;48.460;11.450;2022-09-12T15:38:15;24.30;64.90
38592;DHT22;24356;48.460;11.450;2022-09-12T15:40:43;24.30;65.10
38592;DHT22;24356;48.460;11.450;2022-09-12T15:43:11;24.30;64.70
38592;DHT22;24356;48.460;11.450;2022-09-12T15:45:38;24.30;64.80
38592;DHT22;24356;48.460;11.450;2022-09-12T15:48:03;24.30;64.90
38592;DHT22;24356;48.460;11.450;2022-09-12T15:50:30;24.30;64.70
38592;DHT22;24356;48.460;11.450;2022-09-12T15:52:56;24.20;64.70
38592;DHT22;24356;48.460;11.450;2022-09-12T15:55:27;24.20;64.70
38592;DHT22;24356;48.460;11.450;2022-09-12T15:57:53;24.10;64.60
38592;DHT22;24356;48.460;11.450;2022-09-12T16:00:19;24.10;64.70
38592;DHT22;24356;48.460;11.450;2022-09-12T16:02:46;24.00;64.60
38592;DHT22;24356;48.460;11.450;2022-09-12T16:05:19;23.90;64.90
38592;DHT22;24356;48.460;11.450;2022-09-12T16:07:46;23.80;65.10
38592;DHT22;24356;48.460;11.450;2022-09-12T16:10:16;23.80;65.20
38592;DHT22;24356;48.460;11.450;2022-09-12T16:12:43;23.70;65.30
38592;DHT22;24356;48.460;11.450;2022-09-12T16:15:16;23.60;65.50
38592;DHT22;24356;48.460;11.450;2022-09-12T16:17:42;23.50;65.80
38592;DHT22;24356;48.460;11.450;2022-09-12T16:20:08;23.40;65.90
38592;DHT22;24356;48.460;11.450;2022-09-12T16:22:34;23.30;66.30
38592;DHT22;24356;48.460;11.450;2022-09-12T16:25:00;23.20;66.20
38592;DHT22;24356;48.460;11.450;2022-09-12T16:27:25;23.10;66.40
38592;DHT22;24356;48.460;11.450;2022-09-12T16:29:51;23.00;66.80
38592;DHT22;24356;48.460;11.450;2022-09-12T16:32:18;22.90;66.90
38592;DHT22;24356;48.460;11.450;2022-09-12T16:34:43;22.80;67.20
38592;DHT22;24356;48.460;11.450;2022-09-12T16:37:09;22.70;67.30
38592;DHT22;24356;48.460;11.450;2022-09-12T16:39:36;22.60;67.70
38592;DHT22;24356;48.460;11.450;2022-09-12T16:42:02;22.50;68.00
38592;DHT22;24356;48.460;11.450;2022-09-12T16:44:28;22.40;68.40
38592;DHT22;24356;48.460;11.450;2022-09-12T16:46:53;22.20;68.50
38592;DHT22;24356;48.460;11.450;2022-09-12T16:49:19;22.10;68.70
38592;DHT22;24356;48.460;11.450;2022-09-12T16:51:46;22.00;68.90
38592;DHT22;24356;48.460;11.450;2022-09-12T16:54:13;21.90;69.20
38592;DHT22;24356;48.460;11.450;2022-09-12T16:56:39;21.80;69.40
38592;DHT22;24356;48.460;11.450;2022-09-12T16:59:05;21.70;69.50
38592;DHT22;24356;48.460;11.450;2022-09-12T17:01:33;21.60;69.90
38592;DHT22;24356;48.460;11.450;2022-09-12T17:03:59;21.40;70.20
38592;DHT22;24356;48.460;11.450;2022-09-12T17:06:25;21.30;70.50
38592;DHT22;24356;48.460;11.450;2022-09-12T17:08:53;21.20;70.80
38592;DHT22;24356;48.460;11.450;2022-09-12T17:11:22;21.10;71.10
38592;DHT22;24356;48.460;11.450;2022-09-12T17:13:58;21.00;71.50
38592;DHT22;24356;48.460;11.450;2022-09-12T17:16:25;20.80;71.70
38592;DHT22;24356;48.460;11.450;2022-09-12T17:18:51;20.70;72.00
38592;DHT22;24356;48.460;11.450;2022-09-12T17:21:17;20.60;72.00
38592;DHT22;24356;48.460;11.450;2022-09-12T17:23:43;20.50;72.00
38592;DHT22;24356;48.460;11.450;2022-09-12T17:26:10;20.30;72.00
38592;DHT22;24356;48.460;11.450;2022-09-12T17:28:37;20.20;72.10
38592;DHT22;24356;48.460;11.450;2022-09-12T17:31:05;20.10;72.30
38592;DHT22;24356;48.460;11.450;2022-09-12T17:33:32;19.90;72.30
38592;DHT22;24356;48.460;11.450;2022-09-12T17:36:02;19.80;72.50
38592;DHT22;24356;48.460;11.450;2022-09-12T17:38:31;19.70;72.80
38592;DHT22;24356;48.460;11.450;2022-09-12T17:41:19;19.60;73.00
38592;DHT22;24356;48.460;11.450;2022-09-12T17:43:46;19.50;73.30
38592;DHT22;24356;48.460;11.450;2022-09-12T17:46:18;19.40;73.50
38592;DHT22;24356;48.460;11.450;2022-09-12T17:48:55;19.30;73.60
38592;DHT22;24356;48.460;11.450;2022-09-12T17:51:41;19.10;73.70
38592;DHT22;24356;48.460;11.450;2022-09-12T17:54:16;19.00;73.80
38592;DHT22;24356;48.460;11.450;2022-09-12T17:56:43;18.90;74.10
38592;DHT22;24356;48.460;11.450;2022-09-12T17:59:17;18.80;74.50
38592;DHT22;24356;48.460;11.450;2022-09-12T18:01:43;18.60;74.80
38592;DHT22;24356;48.460;11.450;2022-09-12T18:04:32;18.60;74.90
38592;DHT22;24356;48.460;11.450;2022-09-12T18:06:57;18.40;75.10
38592;DHT22;24356;48.460;11.450;2022-09-12T18:09:25;18.30;75.50
38592;DHT22;24356;48.460;11.450;2022-09-12T18:11:51;18.20;75.60
38592;DHT22;24356;48.460;11.450;2022-09-12T18:14:18;18.10;75.90
38592;DHT22;24356;48.460;11.450;2022-09-12T18:16:44;18.00;76.10
38592;DHT22;24356;48.460;11.450;2022-09-12T18:19:10;17.90;76.20
38592;DHT22;24356;48.460;11.450;2022-09-12T18:21:36;17.90;76.40
38592;DHT22;24356;48.460;11.450;2022-09-12T18:24:02;17.80;76.40
38592;DHT22;24356;48.460;11.450;2022-09-12T18:26:29;17.70;76.70
38592;DHT22;24356;48.460;11.450;2022-09-12T18:28:55;17.60;77.00
38592;DHT22;24356;48.460;11.450;2022-09-12T18:31:25;17.50;76.90